sensor_id;sensor_type;location;lat;lon;timestamp;P1;durP1;ratioP1;P2;durP2;ratioP2
69750;SDS011;57335;52.288;6.056;2023-04-01T00:01:41;7.55;;;1.90;;
69750;SDS011;57335;52.288;6.056;2023-04-01T00:04:07;7.32;;;2.03;;
69750;SDS011;57335;52.288;6.056;2023-04-01T00:06:34;6.80;;;2.00;;
69750;SDS011;57335;52.288;6.056;2023-04-01T00:09:00;6.80;;;2.20;;
69750;SDS011;57335;52.288;6.056;2023-04-01T00:11:27;6.22;;;1.80;;
69750;SDS011;57335;52.288;6.056;2023-04-01T00:13:53;6.15;;;1.98;;
69750;SDS011;57335;52.288;6.056;2023-04-01T00:16:20;4.60;;;1.50;;
69750;SDS011;57335;52.288;6.056;2023-04-01T00:18:48;5.32;;;1.73;;
69750;SDS011;57335;52.288;6.056;2023-04-01T00:21:15;7.90;;;2.30;;
69750;SDS011;57335;52.288;6.056;2023-04-01T00:23:43;7.72;;;2.05;;
69750;SDS011;57335;52.288;6.056;2023-04-01T00:26:09;7.05;;;2.10;;
69750;SDS011;57335;52.288;6.056;2023-04-01T00:28:35;7.32;;;2.20;;
69750;SDS011;57335;52.288;6.056;2023-04-01T00:31:06;7.55;;;2.08;;
69750;SDS011;57335;52.288;6.056;2023-04-01T00:33:35;6.63;;;2.05;;
69750;SDS011;57335;52.288;6.056;2023-04-01T00:36:09;7.47;;;2.03;;
69750;SDS011;57335;52.288;6.056;2023-04-01T00:38:37;9.48;;;2.55;;
69750;SDS011;57335;52.288;6.056;2023-04-01T00:41:04;6.15;;;2.00;;
69750;SDS011;57335;52.288;6.056;2023-04-01T00:43:31;7.60;;;1.95;;
69750;SDS011;57335;52.288;6.056;2023-04-01T00:45:58;6.28;;;2.10;;
69750;SDS011;57335;52.288;6.056;2023-04-01T00:48:30;6.40;;;1.98;;
69750;SDS011;57335;52.288;6.056;2023-04-01T00:51:01;7.38;;;2.13;;
69750;SDS011;57335;52.288;6.056;2023-04-01T00:53:31;8.30;;;2.08;;
69750;SDS011;57335;52.288;6.056;2023-04-01T00:56:01;7.05;;;2.53;;
69750;SDS011;57335;52.288;6.056;2023-04-01T00:58:33;7.70;;;2.40;;
69750;SDS011;57335;52.288;6.056;2023-04-01T01:01:04;8.75;;;2.78;;
69750;SDS011;57335;52.288;6.056;2023-04-01T01:03:32;9.93;;;3.20;;
69750;SDS011;57335;52.288;6.056;2023-04-01T01:06:14;10.93;;;3.13;;
69750;SDS011;57335;52.288;6.056;2023-04-01T01:11:30;10.05;;;3.45;;
69750;SDS011;57335;52.288;6.056;2023-04-01T01:17:39;11.77;;;3.75;;
69750;SDS011;57335;52.288;6.056;2023-04-01T01:20:25;10.93;;;3.72;;
69750;SDS011;57335;52.288;6.056;2023-04-01T01:23:19;9.68;;;3.60;;
69750;SDS011;57335;52.288;6.056;2023-04-01T01:26:13;11.60;;;4.20;;
69750;SDS011;57335;52.288;6.056;2023-04-01T01:29:08;11.50;;;4.10;;
69750;SDS011;57335;52.288;6.056;2023-04-01T01:31:54;12.57;;;4.50;;
69750;SDS011;57335;52.288;6.056;2023-04-01T01:37:29;12.90;;;4.47;;
69750;SDS011;57335;52.288;6.056;2023-04-01T01:40:03;13.75;;;5.38;;
69750;SDS011;57335;52.288;6.056;2023-04-01T01:42:33;15.10;;;5.53;;
69750;SDS011;57335;52.288;6.056;2023-04-01T01:45:04;13.88;;;4.90;;
69750;SDS011;57335;52.288;6.056;2023-04-01T01:47:32;16.45;;;5.43;;
69750;SDS011;57335;52.288;6.056;2023-04-01T01:50:01;14.23;;;4.57;;
69750;SDS011;57335;52.288;6.056;2023-04-01T01:52:29;14.68;;;5.40;;
69750;SDS011;57335;52.288;6.056;2023-04-01T01:54:56;15.93;;;4.50;;
69750;SDS011;57335;52.288;6.056;2023-04-01T01:57:28;14.48;;;5.40;;
69750;SDS011;57335;52.288;6.056;2023-04-01T02:00:02;14.48;;;5.20;;
69750;SDS011;57335;52.288;6.056;2023-04-01T02:02:32;14.88;;;5.45;;
69750;SDS011;57335;52.288;6.056;2023-04-01T02:04:59;15.55;;;5.30;;
69750;SDS011;57335;52.288;6.056;2023-04-01T02:07:28;14.32;;;4.57;;
69750;SDS011;57335;52.288;6.056;2023-04-01T02:09:59;12.70;;;4.80;;
69750;SDS011;57335;52.288;6.056;2023-04-01T02:12:26;14.18;;;5.05;;
69750;SDS011;57335;52.288;6.056;2023-04-01T02:14:58;15.32;;;4.90;;
69750;SDS011;57335;52.288;6.056;2023-04-01T02:17:30;16.23;;;4.72;;
69750;SDS011;57335;52.288;6.056;2023-04-01T02:20:01;20.20;;;5.30;;
69750;SDS011;57335;52.288;6.056;2023-04-01T02:22:32;16.60;;;4.85;;
69750;SDS011;57335;52.288;6.056;2023-04-01T02:25:08;15.82;;;4.88;;
69750;SDS011;57335;52.288;6.056;2023-04-01T02:27:38;15.27;;;5.22;;
69750;SDS011;57335;52.288;6.056;2023-04-01T02:30:06;15.32;;;5.05;;
69750;SDS011;57335;52.288;6.056;2023-04-01T02:32:33;14.02;;;5.25;;
69750;SDS011;57335;52.288;6.056;2023-04-01T02:35:02;17.52;;;5.45;;
69750;SDS011;57335;52.288;6.056;2023-04-01T02:37:30;15.13;;;5.93;;
69750;SDS011;57335;52.288;6.056;2023-04-01T02:40:00;17.92;;;6.50;;
69750;SDS011;57335;52.288;6.056;2023-04-01T02:42:34;17.75;;;5.95;;
69750;SDS011;57335;52.288;6.056;2023-04-01T02:45:00;16.35;;;6.25;;
69750;SDS011;57335;52.288;6.056;2023-04-01T02:47:27;16.35;;;6.35;;
69750;SDS011;57335;52.288;6.056;2023-04-01T02:49:53;22.85;;;7.60;;
69750;SDS011;57335;52.288;6.056;2023-04-01T02:52:20;21.92;;;6.93;;
69750;SDS011;57335;52.288;6.056;2023-04-01T02:54:46;19.27;;;6.68;;
69750;SDS011;57335;52.288;6.056;2023-04-01T02:57:13;18.48;;;7.50;;
69750;SDS011;57335;52.288;6.056;2023-04-01T02:59:39;21.52;;;7.07;;
69750;SDS011;57335;52.288;6.056;2023-04-01T03:02:05;21.98;;;7.28;;
69750;SDS011;57335;52.288;6.056;2023-04-01T03:04:32;20.70;;;7.57;;
69750;SDS011;57335;52.288;6.056;2023-04-01T03:06:58;20.40;;;7.47;;
69750;SDS011;57335;52.288;6.056;2023-04-01T03:09:25;23.08;;;7.90;;
69750;SDS011;57335;52.288;6.056;2023-04-01T03:11:51;22.65;;;8.30;;
69750;SDS011;57335;52.288;6.056;2023-04-01T03:14:18;19.30;;;7.70;;
69750;SDS011;57335;52.288;6.056;2023-04-01T03:16:44;19.92;;;7.78;;
69750;SDS011;57335;52.288;6.056;2023-04-01T03:19:10;22.27;;;7.90;;
69750;SDS011;57335;52.288;6.056;2023-04-01T03:21:37;20.52;;;7.78;;
69750;SDS011;57335;52.288;6.056;2023-04-01T03:24:03;19.65;;;7.53;;
69750;SDS011;57335;52.288;6.056;2023-04-01T03:26:30;22.92;;;7.75;;
69750;SDS011;57335;52.288;6.056;2023-04-01T03:28:56;20.50;;;7.75;;
69750;SDS011;57335;52.288;6.056;2023-04-01T03:31:23;20.45;;;7.15;;
69750;SDS011;57335;52.288;6.056;2023-04-01T03:33:49;26.83;;;8.13;;
69750;SDS011;57335;52.288;6.056;2023-04-01T03:36:16;23.05;;;8.20;;
69750;SDS011;57335;52.288;6.056;2023-04-01T03:38:43;23.83;;;7.80;;
69750;SDS011;57335;52.288;6.056;2023-04-01T03:41:14;20.55;;;7.50;;
69750;SDS011;57335;52.288;6.056;2023-04-01T03:43:42;21.35;;;8.00;;
69750;SDS011;57335;52.288;6.056;2023-04-01T03:46:09;21.40;;;7.43;;
69750;SDS011;57335;52.288;6.056;2023-04-01T03:48:36;21.58;;;7.43;;
69750;SDS011;57335;52.288;6.056;2023-04-01T03:51:06;22.13;;;8.25;;
69750;SDS011;57335;52.288;6.056;2023-04-01T03:53:33;17.83;;;6.88;;
69750;SDS011;57335;52.288;6.056;2023-04-01T03:56:03;21.75;;;7.57;;
69750;SDS011;57335;52.288;6.056;2023-04-01T03:58:30;22.05;;;7.53;;
69750;SDS011;57335;52.288;6.056;2023-04-01T04:00:57;23.63;;;7.40;;
69750;SDS011;57335;52.288;6.056;2023-04-01T04:03:23;22.27;;;7.57;;
69750;SDS011;57335;52.288;6.056;2023-04-01T04:05:50;22.52;;;7.97;;
69750;SDS011;57335;52.288;6.056;2023-04-01T04:08:16;19.60;;;7.80;;
69750;SDS011;57335;52.288;6.056;2023-04-01T04:10:43;17.95;;;6.63;;
69750;SDS011;57335;52.288;6.056;2023-04-01T04:13:09;21.70;;;6.72;;
69750;SDS011;57335;52.288;6.056;2023-04-01T04:15:36;18.13;;;6.47;;
69750;SDS011;57335;52.288;6.056;2023-04-01T04:18:02;17.15;;;6.03;;
69750;SDS011;57335;52.288;6.056;2023-04-01T04:20:29;19.13;;;6.47;;
69750;SDS011;57335;52.288;6.056;2023-04-01T04:22:55;17.85;;;6.32;;
69750;SDS011;57335;52.288;6.056;2023-04-01T04:25:21;20.35;;;6.95;;
69750;SDS011;57335;52.288;6.056;2023-04-01T04:27:48;19.23;;;6.18;;
69750;SDS011;57335;52.288;6.056;2023-04-01T04:30:14;17.10;;;6.07;;
69750;SDS011;57335;52.288;6.056;2023-04-01T04:32:42;16.73;;;6.28;;
69750;SDS011;57335;52.288;6.056;2023-04-01T04:35:08;15.98;;;5.70;;
69750;SDS011;57335;52.288;6.056;2023-04-01T04:37:35;19.33;;;6.78;;
69750;SDS011;57335;52.288;6.056;2023-04-01T04:40:01;17.95;;;6.13;;
69750;SDS011;57335;52.288;6.056;2023-04-01T04:42:27;18.88;;;5.82;;
69750;SDS011;57335;52.288;6.056;2023-04-01T04:44:54;19.00;;;6.30;;
69750;SDS011;57335;52.288;6.056;2023-04-01T04:47:20;18.92;;;5.95;;
69750;SDS011;57335;52.288;6.056;2023-04-01T04:49:47;17.58;;;5.75;;
69750;SDS011;57335;52.288;6.056;2023-04-01T04:52:13;16.25;;;5.70;;
69750;SDS011;57335;52.288;6.056;2023-04-01T04:54:39;17.98;;;6.20;;
69750;SDS011;57335;52.288;6.056;2023-04-01T04:57:06;14.43;;;5.53;;
69750;SDS011;57335;52.288;6.056;2023-04-01T04:59:32;16.95;;;6.15;;
69750;SDS011;57335;52.288;6.056;2023-04-01T05:01:59;16.08;;;5.55;;
69750;SDS011;57335;52.288;6.056;2023-04-01T05:04:25;19.27;;;6.13;;
69750;SDS011;57335;52.288;6.056;2023-04-01T05:06:51;16.70;;;5.60;;
69750;SDS011;57335;52.288;6.056;2023-04-01T05:09:18;19.20;;;6.05;;
69750;SDS011;57335;52.288;6.056;2023-04-01T05:11:44;16.73;;;5.30;;
69750;SDS011;57335;52.288;6.056;2023-04-01T05:14:14;18.42;;;5.60;;
69750;SDS011;57335;52.288;6.056;2023-04-01T05:16:41;17.98;;;5.55;;
69750;SDS011;57335;52.288;6.056;2023-04-01T05:19:08;16.73;;;5.50;;
69750;SDS011;57335;52.288;6.056;2023-04-01T05:21:34;17.27;;;5.65;;
69750;SDS011;57335;52.288;6.056;2023-04-01T05:24:00;13.70;;;5.20;;
69750;SDS011;57335;52.288;6.056;2023-04-01T05:26:27;15.77;;;6.10;;
69750;SDS011;57335;52.288;6.056;2023-04-01T05:28:53;14.05;;;4.88;;
69750;SDS011;57335;52.288;6.056;2023-04-01T05:31:20;19.10;;;5.88;;
69750;SDS011;57335;52.288;6.056;2023-04-01T05:33:46;18.63;;;5.78;;
69750;SDS011;57335;52.288;6.056;2023-04-01T05:36:13;17.00;;;5.90;;
69750;SDS011;57335;52.288;6.056;2023-04-01T05:38:41;17.23;;;5.25;;
69750;SDS011;57335;52.288;6.056;2023-04-01T05:41:08;16.70;;;5.10;;
69750;SDS011;57335;52.288;6.056;2023-04-01T05:43:36;15.10;;;5.53;;
69750;SDS011;57335;52.288;6.056;2023-04-01T05:46:03;17.35;;;5.45;;
69750;SDS011;57335;52.288;6.056;2023-04-01T05:48:29;16.30;;;6.25;;
69750;SDS011;57335;52.288;6.056;2023-04-01T05:50:55;18.10;;;6.03;;
69750;SDS011;57335;52.288;6.056;2023-04-01T05:53:22;17.67;;;5.78;;
69750;SDS011;57335;52.288;6.056;2023-04-01T05:55:49;18.55;;;6.75;;
69750;SDS011;57335;52.288;6.056;2023-04-01T05:58:16;20.83;;;7.00;;
69750;SDS011;57335;52.288;6.056;2023-04-01T06:00:42;19.65;;;6.88;;
69750;SDS011;57335;52.288;6.056;2023-04-01T06:03:09;20.30;;;6.90;;
69750;SDS011;57335;52.288;6.056;2023-04-01T06:05:39;22.50;;;6.32;;
69750;SDS011;57335;52.288;6.056;2023-04-01T06:08:13;22.00;;;7.65;;
69750;SDS011;57335;52.288;6.056;2023-04-01T06:13:27;20.98;;;7.20;;
69750;SDS011;57335;52.288;6.056;2023-04-01T06:22:15;22.23;;;7.63;;
69750;SDS011;57335;52.288;6.056;2023-04-01T06:25:05;20.65;;;7.50;;
69750;SDS011;57335;52.288;6.056;2023-04-01T06:27:57;19.65;;;7.70;;
69750;SDS011;57335;52.288;6.056;2023-04-01T06:30:44;25.10;;;7.70;;
69750;SDS011;57335;52.288;6.056;2023-04-01T06:33:28;24.02;;;8.50;;
69750;SDS011;57335;52.288;6.056;2023-04-01T06:42:09;23.40;;;7.53;;
69750;SDS011;57335;52.288;6.056;2023-04-01T06:47:38;22.10;;;7.68;;
69750;SDS011;57335;52.288;6.056;2023-04-01T06:53:10;23.50;;;7.18;;
69750;SDS011;57335;52.288;6.056;2023-04-01T06:55:48;25.95;;;7.82;;
69750;SDS011;57335;52.288;6.056;2023-04-01T06:58:23;24.73;;;7.03;;
69750;SDS011;57335;52.288;6.056;2023-04-01T07:00:54;22.45;;;7.70;;
69750;SDS011;57335;52.288;6.056;2023-04-01T07:03:36;23.20;;;7.05;;
69750;SDS011;57335;52.288;6.056;2023-04-01T07:06:05;22.85;;;6.97;;
69750;SDS011;57335;52.288;6.056;2023-04-01T07:08:38;21.48;;;6.80;;
69750;SDS011;57335;52.288;6.056;2023-04-01T07:11:11;21.80;;;7.15;;
69750;SDS011;57335;52.288;6.056;2023-04-01T07:21:47;18.48;;;6.50;;
69750;SDS011;57335;52.288;6.056;2023-04-01T07:24:32;20.20;;;6.13;;
69750;SDS011;57335;52.288;6.056;2023-04-01T07:27:02;19.65;;;5.93;;
69750;SDS011;57335;52.288;6.056;2023-04-01T07:29:29;18.95;;;5.82;;
69750;SDS011;57335;52.288;6.056;2023-04-01T07:35:04;17.45;;;5.63;;
69750;SDS011;57335;52.288;6.056;2023-04-01T07:38:02;20.83;;;5.75;;
69750;SDS011;57335;52.288;6.056;2023-04-01T07:43:30;14.18;;;5.03;;
69750;SDS011;57335;52.288;6.056;2023-04-01T07:49:00;16.52;;;4.93;;
69750;SDS011;57335;52.288;6.056;2023-04-01T07:51:38;14.82;;;4.70;;
69750;SDS011;57335;52.288;6.056;2023-04-01T07:54:26;13.90;;;4.07;;
69750;SDS011;57335;52.288;6.056;2023-04-01T08:02:28;12.98;;;4.07;;
69750;SDS011;57335;52.288;6.056;2023-04-01T08:07:25;11.18;;;3.35;;
69750;SDS011;57335;52.288;6.056;2023-04-01T08:15:21;11.25;;;3.10;;
69750;SDS011;57335;52.288;6.056;2023-04-01T08:20:46;11.43;;;3.70;;
69750;SDS011;57335;52.288;6.056;2023-04-01T08:23:19;10.93;;;3.25;;
69750;SDS011;57335;52.288;6.056;2023-04-01T08:25:57;11.75;;;3.60;;
69750;SDS011;57335;52.288;6.056;2023-04-01T08:28:41;11.98;;;3.38;;
69750;SDS011;57335;52.288;6.056;2023-04-01T08:31:12;11.23;;;3.63;;
69750;SDS011;57335;52.288;6.056;2023-04-01T08:33:42;10.32;;;3.40;;
69750;SDS011;57335;52.288;6.056;2023-04-01T08:36:14;10.25;;;3.58;;
69750;SDS011;57335;52.288;6.056;2023-04-01T08:38:55;10.82;;;3.28;;
69750;SDS011;57335;52.288;6.056;2023-04-01T08:53:21;11.23;;;2.83;;
69750;SDS011;57335;52.288;6.056;2023-04-01T08:58:54;10.13;;;3.15;;
69750;SDS011;57335;52.288;6.056;2023-04-01T09:01:32;10.00;;;3.00;;
69750;SDS011;57335;52.288;6.056;2023-04-01T09:12:54;9.30;;;3.00;;
69750;SDS011;57335;52.288;6.056;2023-04-01T09:15:34;8.40;;;2.50;;
69750;SDS011;57335;52.288;6.056;2023-04-01T09:23:57;7.10;;;2.40;;
69750;SDS011;57335;52.288;6.056;2023-04-01T09:29:51;8.15;;;2.60;;
69750;SDS011;57335;52.288;6.056;2023-04-01T09:35:46;10.25;;;3.30;;
69750;SDS011;57335;52.288;6.056;2023-04-01T09:38:22;7.60;;;2.42;;
69750;SDS011;57335;52.288;6.056;2023-04-01T09:50:03;6.78;;;2.55;;
69750;SDS011;57335;52.288;6.056;2023-04-01T10:44:11;7.03;;;1.83;;
69750;SDS011;57335;52.288;6.056;2023-04-01T10:47:02;5.97;;;1.90;;
69750;SDS011;57335;52.288;6.056;2023-04-01T10:49:46;6.47;;;1.95;;
69750;SDS011;57335;52.288;6.056;2023-04-01T10:52:34;6.65;;;2.40;;
69750;SDS011;57335;52.288;6.056;2023-04-01T10:59:11;4.82;;;1.45;;
69750;SDS011;57335;52.288;6.056;2023-04-01T11:02:00;5.32;;;1.50;;
69750;SDS011;57335;52.288;6.056;2023-04-01T11:22:17;6.68;;;2.00;;
69750;SDS011;57335;52.288;6.056;2023-04-01T11:27:29;5.75;;;1.77;;
69750;SDS011;57335;52.288;6.056;2023-04-01T11:32:47;2.83;;;0.75;;
69750;SDS011;57335;52.288;6.056;2023-04-01T11:35:25;2.95;;;0.88;;
69750;SDS011;57335;52.288;6.056;2023-04-01T11:46:25;4.82;;;1.50;;
69750;SDS011;57335;52.288;6.056;2023-04-01T11:49:20;4.93;;;1.55;;
69750;SDS011;57335;52.288;6.056;2023-04-01T11:59:58;5.97;;;1.85;;
69750;SDS011;57335;52.288;6.056;2023-04-01T12:05:48;5.97;;;2.03;;
69750;SDS011;57335;52.288;6.056;2023-04-01T12:11:21;7.28;;;2.35;;
69750;SDS011;57335;52.288;6.056;2023-04-01T12:24:49;6.25;;;1.88;;
69750;SDS011;57335;52.288;6.056;2023-04-01T12:27:29;4.93;;;1.90;;
69750;SDS011;57335;52.288;6.056;2023-04-01T12:32:56;4.28;;;1.60;;
69750;SDS011;57335;52.288;6.056;2023-04-01T12:38:38;4.70;;;1.50;;
69750;SDS011;57335;52.288;6.056;2023-04-01T12:53:11;2.10;;;1.00;;
69750;SDS011;57335;52.288;6.056;2023-04-01T12:55:51;4.28;;;1.90;;
69750;SDS011;57335;52.288;6.056;2023-04-01T13:04:20;5.38;;;1.92;;
69750;SDS011;57335;52.288;6.056;2023-04-01T13:13:13;7.63;;;2.35;;
69750;SDS011;57335;52.288;6.056;2023-04-01T13:16:26;7.13;;;2.45;;
69750;SDS011;57335;52.288;6.056;2023-04-01T13:18:50;3.80;;;1.48;;
69750;SDS011;57335;52.288;6.056;2023-04-01T13:21:34;7.00;;;2.80;;
69750;SDS011;57335;52.288;6.056;2023-04-01T13:27:05;5.30;;;1.67;;
69750;SDS011;57335;52.288;6.056;2023-04-01T13:41:04;4.47;;;1.70;;
69750;SDS011;57335;52.288;6.056;2023-04-01T13:43:48;5.55;;;1.95;;
69750;SDS011;57335;52.288;6.056;2023-04-01T13:54:49;5.35;;;1.98;;
69750;SDS011;57335;52.288;6.056;2023-04-01T14:06:06;6.18;;;2.35;;
69750;SDS011;57335;52.288;6.056;2023-04-01T14:08:42;13.98;;;3.10;;
69750;SDS011;57335;52.288;6.056;2023-04-01T14:14:34;3.85;;;1.88;;
69750;SDS011;57335;52.288;6.056;2023-04-01T14:17:24;5.53;;;1.73;;
69750;SDS011;57335;52.288;6.056;2023-04-01T14:23:21;6.90;;;2.80;;
69750;SDS011;57335;52.288;6.056;2023-04-01T14:32:06;6.80;;;2.72;;
69750;SDS011;57335;52.288;6.056;2023-04-01T14:34:44;6.53;;;2.17;;
69750;SDS011;57335;52.288;6.056;2023-04-01T14:46:04;5.10;;;1.92;;
69750;SDS011;57335;52.288;6.056;2023-04-01T14:48:32;5.78;;;2.33;;
69750;SDS011;57335;52.288;6.056;2023-04-01T14:51:12;7.88;;;3.88;;
69750;SDS011;57335;52.288;6.056;2023-04-01T14:53:53;7.05;;;2.92;;
69750;SDS011;57335;52.288;6.056;2023-04-01T14:56:47;5.63;;;2.50;;
69750;SDS011;57335;52.288;6.056;2023-04-01T15:24:03;4.35;;;1.58;;
69750;SDS011;57335;52.288;6.056;2023-04-01T15:37:56;5.63;;;2.05;;
69750;SDS011;57335;52.288;6.056;2023-04-01T15:46:08;3.80;;;1.50;;
69750;SDS011;57335;52.288;6.056;2023-04-01T15:49:02;4.13;;;1.35;;
69750;SDS011;57335;52.288;6.056;2023-04-01T16:00:11;4.57;;;1.67;;
69750;SDS011;57335;52.288;6.056;2023-04-01T16:09:02;4.07;;;1.70;;
69750;SDS011;57335;52.288;6.056;2023-04-01T16:12:24;6.55;;;2.78;;
69750;SDS011;57335;52.288;6.056;2023-04-01T16:14:59;5.60;;;2.40;;
69750;SDS011;57335;52.288;6.056;2023-04-01T16:17:43;6.40;;;2.22;;
69750;SDS011;57335;52.288;6.056;2023-04-01T16:20:22;4.43;;;1.48;;
69750;SDS011;57335;52.288;6.056;2023-04-01T16:23:18;6.00;;;2.15;;
69750;SDS011;57335;52.288;6.056;2023-04-01T16:25:52;6.47;;;2.28;;
69750;SDS011;57335;52.288;6.056;2023-04-01T16:28:29;6.13;;;2.63;;
69750;SDS011;57335;52.288;6.056;2023-04-01T16:31:09;6.25;;;2.17;;
69750;SDS011;57335;52.288;6.056;2023-04-01T16:36:24;8.10;;;2.60;;
69750;SDS011;57335;52.288;6.056;2023-04-01T16:39:02;5.60;;;2.22;;
69750;SDS011;57335;52.288;6.056;2023-04-01T16:41:52;5.47;;;1.67;;
69750;SDS011;57335;52.288;6.056;2023-04-01T16:44:49;5.45;;;2.50;;
69750;SDS011;57335;52.288;6.056;2023-04-01T16:47:23;4.82;;;1.77;;
69750;SDS011;57335;52.288;6.056;2023-04-01T16:49:58;6.30;;;2.35;;
69750;SDS011;57335;52.288;6.056;2023-04-01T16:58:18;5.90;;;2.22;;
69750;SDS011;57335;52.288;6.056;2023-04-01T17:00:53;6.47;;;2.50;;
69750;SDS011;57335;52.288;6.056;2023-04-01T17:03:32;8.07;;;3.40;;
69750;SDS011;57335;52.288;6.056;2023-04-01T17:14:55;7.20;;;2.92;;
69750;SDS011;57335;52.288;6.056;2023-04-01T17:17:38;6.45;;;2.83;;
69750;SDS011;57335;52.288;6.056;2023-04-01T17:20:27;5.00;;;1.70;;
69750;SDS011;57335;52.288;6.056;2023-04-01T17:23:18;5.53;;;2.20;;
69750;SDS011;57335;52.288;6.056;2023-04-01T17:26:00;6.22;;;2.45;;
69750;SDS011;57335;52.288;6.056;2023-04-01T17:28:36;6.53;;;2.55;;
69750;SDS011;57335;52.288;6.056;2023-04-01T17:31:19;6.30;;;2.45;;
69750;SDS011;57335;52.288;6.056;2023-04-01T17:48:31;5.47;;;2.03;;
69750;SDS011;57335;52.288;6.056;2023-04-01T17:56:32;5.80;;;2.63;;
69750;SDS011;57335;52.288;6.056;2023-04-01T17:59:18;5.45;;;2.22;;
69750;SDS011;57335;52.288;6.056;2023-04-01T18:02:01;10.30;;;2.45;;
69750;SDS011;57335;52.288;6.056;2023-04-01T18:12:44;6.63;;;2.45;;
69750;SDS011;57335;52.288;6.056;2023-04-01T18:15:35;3.13;;;1.17;;
69750;SDS011;57335;52.288;6.056;2023-04-01T18:21:12;4.75;;;1.85;;
69750;SDS011;57335;52.288;6.056;2023-04-01T18:24:02;5.90;;;2.38;;
69750;SDS011;57335;52.288;6.056;2023-04-01T18:26:42;6.78;;;2.25;;
69750;SDS011;57335;52.288;6.056;2023-04-01T18:29:19;7.10;;;3.03;;
69750;SDS011;57335;52.288;6.056;2023-04-01T18:37:44;6.63;;;2.60;;
69750;SDS011;57335;52.288;6.056;2023-04-01T18:40:25;7.00;;;2.33;;
69750;SDS011;57335;52.288;6.056;2023-04-01T18:43:01;5.38;;;2.03;;
69750;SDS011;57335;52.288;6.056;2023-04-01T18:45:37;4.88;;;1.90;;
69750;SDS011;57335;52.288;6.056;2023-04-01T18:51:37;3.05;;;1.60;;
69750;SDS011;57335;52.288;6.056;2023-04-01T18:56:44;6.20;;;2.72;;
69750;SDS011;57335;52.288;6.056;2023-04-01T18:59:16;5.82;;;2.30;;
69750;SDS011;57335;52.288;6.056;2023-04-01T19:04:33;7.57;;;3.05;;
69750;SDS011;57335;52.288;6.056;2023-04-01T19:09:54;5.95;;;2.08;;
69750;SDS011;57335;52.288;6.056;2023-04-01T19:12:33;6.22;;;2.67;;
69750;SDS011;57335;52.288;6.056;2023-04-01T19:15:11;7.60;;;2.63;;
69750;SDS011;57335;52.288;6.056;2023-04-01T19:24:20;11.52;;;5.43;;
69750;SDS011;57335;52.288;6.056;2023-04-01T19:32:11;10.55;;;4.35;;
69750;SDS011;57335;52.288;6.056;2023-04-01T19:37:39;10.35;;;4.53;;
69750;SDS011;57335;52.288;6.056;2023-04-01T19:40:27;9.75;;;4.95;;
69750;SDS011;57335;52.288;6.056;2023-04-01T19:43:18;8.18;;;3.78;;
69750;SDS011;57335;52.288;6.056;2023-04-01T19:48:48;8.95;;;3.55;;
69750;SDS011;57335;52.288;6.056;2023-04-01T19:51:51;9.40;;;4.07;;
69750;SDS011;57335;52.288;6.056;2023-04-01T20:00:16;8.43;;;3.35;;
69750;SDS011;57335;52.288;6.056;2023-04-01T20:06:31;9.95;;;4.30;;
69750;SDS011;57335;52.288;6.056;2023-04-01T20:11:56;10.35;;;4.75;;
69750;SDS011;57335;52.288;6.056;2023-04-01T20:17:32;10.40;;;3.78;;
69750;SDS011;57335;52.288;6.056;2023-04-01T20:28:00;10.75;;;5.30;;
69750;SDS011;57335;52.288;6.056;2023-04-01T20:57:36;10.23;;;4.20;;
69750;SDS011;57335;52.288;6.056;2023-04-01T21:08:40;11.63;;;5.50;;
69750;SDS011;57335;52.288;6.056;2023-04-01T21:11:46;10.75;;;5.15;;
69750;SDS011;57335;52.288;6.056;2023-04-01T21:18:04;8.70;;;4.10;;
69750;SDS011;57335;52.288;6.056;2023-04-01T21:20:24;9.13;;;3.72;;
69750;SDS011;57335;52.288;6.056;2023-04-01T21:23:18;8.27;;;3.38;;
69750;SDS011;57335;52.288;6.056;2023-04-01T21:28:41;9.65;;;4.25;;
69750;SDS011;57335;52.288;6.056;2023-04-01T21:44:37;10.25;;;5.15;;
69750;SDS011;57335;52.288;6.056;2023-04-01T21:50:35;14.10;;;5.97;;
69750;SDS011;57335;52.288;6.056;2023-04-01T21:59:14;9.23;;;4.25;;
69750;SDS011;57335;52.288;6.056;2023-04-01T22:01:57;10.02;;;4.53;;
69750;SDS011;57335;52.288;6.056;2023-04-01T22:04:52;10.02;;;4.40;;
69750;SDS011;57335;52.288;6.056;2023-04-01T22:07:23;8.55;;;3.92;;
69750;SDS011;57335;52.288;6.056;2023-04-01T22:12:54;11.95;;;5.20;;
69750;SDS011;57335;52.288;6.056;2023-04-01T22:18:33;13.57;;;6.65;;
69750;SDS011;57335;52.288;6.056;2023-04-01T22:21:23;8.88;;;4.13;;
69750;SDS011;57335;52.288;6.056;2023-04-01T22:23:58;14.23;;;6.05;;
69750;SDS011;57335;52.288;6.056;2023-04-01T22:26:52;12.07;;;4.85;;
69750;SDS011;57335;52.288;6.056;2023-04-01T22:43:49;12.77;;;4.43;;
69750;SDS011;57335;52.288;6.056;2023-04-01T22:46:26;17.40;;;6.93;;
69750;SDS011;57335;52.288;6.056;2023-04-01T22:51:45;11.15;;;4.88;;
69750;SDS011;57335;52.288;6.056;2023-04-01T22:57:00;9.73;;;4.50;;
69750;SDS011;57335;52.288;6.056;2023-04-01T22:59:50;11.75;;;5.15;;
69750;SDS011;57335;52.288;6.056;2023-04-01T23:02:30;12.10;;;5.32;;
69750;SDS011;57335;52.288;6.056;2023-04-01T23:05:03;11.60;;;5.82;;
69750;SDS011;57335;52.288;6.056;2023-04-01T23:10:05;17.50;;;10.45;;
69750;SDS011;57335;52.288;6.056;2023-04-01T23:12:41;12.38;;;5.75;;
69750;SDS011;57335;52.288;6.056;2023-04-01T23:15:11;16.50;;;6.43;;
69750;SDS011;57335;52.288;6.056;2023-04-01T23:29:13;16.38;;;6.72;;
69750;SDS011;57335;52.288;6.056;2023-04-01T23:31:42;13.43;;;5.20;;
69750;SDS011;57335;52.288;6.056;2023-04-01T23:34:32;13.63;;;5.38;;
69750;SDS011;57335;52.288;6.056;2023-04-01T23:37:02;14.45;;;6.70;;
69750;SDS011;57335;52.288;6.056;2023-04-01T23:39:40;13.30;;;6.10;;
69750;SDS011;57335;52.288;6.056;2023-04-01T23:44:55;16.02;;;7.10;;
69750;SDS011;57335;52.288;6.056;2023-04-01T23:47:25;11.98;;;4.93;;
69750;SDS011;57335;52.288;6.056;2023-04-01T23:49:58;11.52;;;5.05;;
69750;SDS011;57335;52.288;6.056;2023-04-01T23:52:30;14.82;;;6.82;;
69750;SDS011;57335;52.288;6.056;2023-04-01T23:55:08;11.80;;;5.32;;
69750;SDS011;57335;52.288;6.056;2023-04-01T23:57:39;12.55;;;4.95;;
